Montgomery, Missouri
Current Conditions -  °F | °C
As of 4:55 PM on Wednesday 26 Nov 2014 (Local Time) from KFYG Reporting Station
Haze Haze  
Wind Chill: 32°   Ceiling: 1800
Heat Index: 32°   Visibility: 5mi
Dew Point: 32°   Wind: 3mph
Humidity: 100%   Direction: 130°SE
Pressure: 30.02"   Gusts: NA
Location:  39.0022°N, 91.5066°W
Report Text: KFYG 262255Z AUTO 13003KT 5SM BR SCT011 BKN018 OVC035 00/00 A3002 RMK AO2
Loading
Personal Weather Stations






























Interactive Weather Map New forecast layout! Learn more

10-Day Weather Forecast

Advertisements
Track Severe Weather on mobile